Bredenbury, Canada
Current Conditions -  °F | °C
As of 5:22 PM on Wednesday 22 Oct 2014 (Local Time) from CYQV Reporting Station
Scattered Clouds Scattered Clouds  
Wind Chill: 52°   Ceiling: Unl
Heat Index: 52°   Visibility: 9mi
Dew Point: 46°   Wind: 9mph
Humidity: 82%   Direction: 280°W
Pressure: 29.68"   Gusts: 17mph
Location:  50.93°N, 102.03°W
Report Text: CYQV 222322Z AUTO 28008G15KT 9SM SCT018 11/08 A2968 RMK SLP065 DENSITY ALT 1700FT
Loading
Personal Weather Stations






























Interactive Weather Map
Tropical Storm Tracking
New forecast layout! Learn more

10-Day Weather Forecast

Advertisements
Track Severe Weather on mobile